Time;durP1;ratioP1;P1;durP2;ratioP2;P2;SDS_P1;SDS_P2;PMS_P1;PMS_P2;Temp;Humidity;BMP_temperature;BMP_pressure;BME280_temperature;BME280_humidity;BME280_pressure;Samples;Min_cycle;Max_cycle;Signal;HPM_P1;HPM_P2
2023/03/06 00:01:24;;;;;;;4.63;4.17;;;7.00;66.20;;;;;;918996;150;27404;-74
2023/03/06 00:03:50;;;;;;;4.17;3.87;;;7.00;66.20;;;;;;903788;155;27491;-74
2023/03/06 00:06:17;;;;;;;4.83;4.27;;;7.00;66.30;;;;;;903526;154;27507;-74
2023/03/06 00:08:44;;;;;;;3.83;3.40;;;7.00;66.40;;;;;;917485;152;27367;-74
2023/03/06 00:11:13;;;;;;;5.53;4.10;;;7.00;66.40;;;;;;918430;152;27849;-73
2023/03/06 00:13:37;;;;;;;4.93;4.03;;;6.90;66.00;;;;;;902316;154;27424;-74
2023/03/06 00:16:05;;;;;;;4.77;4.17;;;6.90;66.40;;;;;;918073;152;27403;-74
2023/03/06 00:18:30;;;;;;;4.77;4.33;;;6.90;66.40;;;;;;907290;154;27342;-74
2023/03/06 00:20:57;;;;;;;6.33;4.20;;;6.90;66.40;;;;;;902223;154;27469;-73
2023/03/06 00:23:23;;;;;;;5.60;4.37;;;6.90;66.50;;;;;;917665;152;27901;-74
2023/03/06 00:25:50;;;;;;;4.43;4.03;;;6.90;66.60;;;;;;902321;155;27911;-74
2023/03/06 00:28:16;;;;;;;4.30;3.90;;;6.90;66.50;;;;;;902726;155;27387;-74
2023/03/06 00:30:43;;;;;;;5.97;4.17;;;6.90;66.50;;;;;;903610;155;27508;-74
2023/03/06 00:33:10;;;;;;;5.67;4.30;;;6.90;66.60;;;;;;916893;152;27395;-74
2023/03/06 00:35:36;;;;;;;3.83;3.53;;;6.90;66.70;;;;;;918688;151;27408;-74
2023/03/06 00:38:03;;;;;;;4.17;3.73;;;6.90;66.70;;;;;;912043;154;27426;-74
2023/03/06 00:40:29;;;;;;;4.43;3.83;;;6.90;66.60;;;;;;902633;155;27501;-74
2023/03/06 00:42:56;;;;;;;5.17;4.67;;;6.90;66.70;;;;;;912403;154;27430;-74
2023/03/06 00:45:22;;;;;;;5.93;4.20;;;6.80;66.60;;;;;;917610;152;27387;-74
2023/03/06 00:47:49;;;;;;;5.87;4.00;;;6.80;66.60;;;;;;905423;154;27880;-73
2023/03/06 00:50:16;;;;;;;4.07;3.63;;;6.80;66.60;;;;;;903575;153;28166;-74
2023/03/06 00:52:42;;;;;;;5.63;3.83;;;6.80;66.60;;;;;;919639;152;27348;-73
2023/03/06 00:55:09;;;;;;;4.30;3.90;;;6.80;66.70;;;;;;903595;154;27508;-74
2023/03/06 00:57:35;;;;;;;4.87;4.03;;;6.80;66.70;;;;;;902252;155;28486;-74
2023/03/06 01:00:02;;;;;;;4.40;3.50;;;6.80;66.70;;;;;;903621;155;27488;-73
2023/03/06 01:02:28;;;;;;;4.80;4.10;;;6.80;66.70;;;;;;903849;155;27444;-74
2023/03/06 01:04:55;;;;;;;4.50;4.10;;;6.80;66.70;;;;;;901793;155;27500;-74
2023/03/06 01:07:22;;;;;;;4.20;3.80;;;6.80;66.80;;;;;;904837;154;27429;-74
2023/03/06 01:09:48;;;;;;;4.47;4.07;;;6.80;66.70;;;;;;923478;151;27540;-74
2023/03/06 01:12:15;;;;;;;5.67;4.00;;;6.80;66.80;;;;;;937893;148;27393;-73
2023/03/06 01:14:41;;;;;;;5.40;3.97;;;6.80;66.80;;;;;;938637;148;27265;-74
2023/03/06 01:17:08;;;;;;;4.60;4.20;;;6.80;66.80;;;;;;902359;155;27523;-74
2023/03/06 01:19:35;;;;;;;4.37;3.97;;;6.80;66.80;;;;;;903358;155;27415;-73
2023/03/06 01:22:01;;;;;;;4.63;3.77;;;6.80;67.60;;;;;;918825;152;27371;-73
2023/03/06 01:24:28;;;;;;;4.43;3.80;;;6.80;66.80;;;;;;902577;154;27379;-74
2023/03/06 01:26:54;;;;;;;4.93;4.43;;;6.80;66.80;;;;;;920978;151;27400;-73
2023/03/06 01:29:21;;;;;;;4.30;3.90;;;6.80;66.80;;;;;;923752;151;27497;-74
2023/03/06 01:31:47;;;;;;;3.80;3.50;;;6.90;67.00;;;;;;921586;151;27410;-73
2023/03/06 01:34:14;;;;;;;5.80;4.37;;;6.90;67.00;;;;;;923797;151;27364;-74
2023/03/06 01:36:41;;;;;;;4.07;3.67;;;6.90;67.00;;;;;;924042;151;27331;-74
2023/03/06 01:39:07;;;;;;;5.50;4.00;;;6.90;67.00;;;;;;924832;151;27478;-73
2023/03/06 01:41:34;;;;;;;4.33;3.93;;;6.90;67.00;;;;;;923336;151;27390;-74
2023/03/06 01:44:00;;;;;;;3.73;3.43;;;6.90;66.90;;;;;;923524;151;27915;-74
2023/03/06 01:46:41;;;;;;;4.63;4.23;;;6.90;66.90;;;;;;926958;151;27362;-73
2023/03/06 01:49:14;;;;;;;4.10;3.70;;;6.90;67.00;;;;;;923751;151;27731;-73
2023/03/06 01:51:43;;;;;;;4.20;3.67;;;6.80;66.90;;;;;;924866;151;27388;-74
2023/03/06 01:54:10;;;;;;;4.03;3.63;;;6.80;66.80;;;;;;917280;151;27340;-74
2023/03/06 01:56:36;;;;;;;5.20;3.60;;;6.80;66.80;;;;;;924000;151;27386;-74
2023/03/06 01:59:03;;;;;;;3.77;3.47;;;6.80;67.00;;;;;;925390;151;27407;-74
2023/03/06 02:01:30;;;;;;;4.17;3.77;;;6.80;66.90;;;;;;926224;151;27859;-73
2023/03/06 02:03:56;;;;;;;5.00;4.13;;;6.80;67.30;;;;;;928224;151;27346;-74
2023/03/06 02:06:23;;;;;;;4.07;3.67;;;6.90;66.90;;;;;;926778;151;27448;-74
2023/03/06 02:08:49;;;;;;;3.90;3.60;;;6.90;66.90;;;;;;927220;151;27474;-73
2023/03/06 02:11:18;;;;;;;4.40;3.43;;;6.90;66.80;;;;;;925441;151;27505;-74
2023/03/06 02:13:45;;;;;;;4.40;3.73;;;6.90;66.80;;;;;;922863;151;28082;-74
2023/03/06 02:16:12;;;;;;;4.70;3.83;;;6.90;66.90;;;;;;925932;151;27372;-74
2023/03/06 02:18:39;;;;;;;4.37;3.87;;;6.90;66.70;;;;;;928608;151;27374;-73
2023/03/06 02:21:08;;;;;;;5.00;3.70;;;6.90;66.70;;;;;;925259;151;27370;-74
2023/03/06 02:24:01;;;;;;;4.03;3.73;;;6.90;66.70;;;;;;924432;151;27419;-74
2023/03/06 02:26:28;;;;;;;4.17;3.60;;;6.90;66.70;;;;;;924204;151;27449;-73
2023/03/06 02:28:57;;;;;;;3.90;3.60;;;6.90;66.60;;;;;;926648;151;27437;-74
2023/03/06 02:31:21;;;;;;;4.23;3.83;;;6.90;66.70;;;;;;926769;151;27488;-74
2023/03/06 02:33:48;;;;;;;4.00;3.60;;;6.90;66.70;;;;;;925012;151;27361;-74
2023/03/06 02:36:14;;;;;;;5.53;4.03;;;6.80;66.70;;;;;;922453;151;27411;-74
2023/03/06 02:38:44;;;;;;;5.37;3.70;;;6.80;66.70;;;;;;925898;151;27614;-73
2023/03/06 02:41:10;;;;;;;4.40;3.73;;;6.80;66.70;;;;;;925380;151;27760;-74
2023/03/06 02:43:37;;;;;;;3.83;3.37;;;6.80;66.70;;;;;;927018;151;27917;-74
2023/03/06 02:46:04;;;;;;;4.60;3.57;;;6.80;66.70;;;;;;928128;151;27485;-74
2023/03/06 02:48:30;;;;;;;4.47;3.80;;;6.80;66.70;;;;;;926006;151;27357;-74
2023/03/06 02:50:57;;;;;;;4.53;3.57;;;6.80;66.70;;;;;;926356;151;27403;-74
2023/03/06 02:53:23;;;;;;;5.43;4.07;;;6.80;66.80;;;;;;909442;153;27420;-74
2023/03/06 02:55:50;;;;;;;4.00;3.50;;;6.80;66.80;;;;;;925317;151;27346;-73
2023/03/06 02:58:18;;;;;;;3.67;3.37;;;6.80;66.80;;;;;;910078;153;27402;-74
2023/03/06 03:00:43;;;;;;;5.87;3.80;;;6.80;66.80;;;;;;919029;153;27916;-73
2023/03/06 03:03:10;;;;;;;4.23;3.63;;;6.80;66.90;;;;;;928291;151;27406;-74
2023/03/06 03:05:36;;;;;;;4.03;3.60;;;6.80;66.90;;;;;;909964;153;27389;-74
2023/03/06 03:08:03;;;;;;;4.83;4.07;;;6.80;66.90;;;;;;925455;151;27402;-74
2023/03/06 03:10:29;;;;;;;4.23;3.80;;;6.80;67.00;;;;;;908573;153;27435;-74
2023/03/06 03:12:56;;;;;;;4.47;4.07;;;6.80;67.00;;;;;;910231;153;27429;-73
2023/03/06 03:15:23;;;;;;;5.20;3.63;;;6.80;67.00;;;;;;914117;153;27530;-74
2023/03/06 03:17:49;;;;;;;4.60;4.20;;;6.80;67.00;;;;;;918298;153;27457;-73
2023/03/06 03:20:16;;;;;;;4.50;3.83;;;6.80;67.00;;;;;;910945;153;27409;-74
2023/03/06 03:22:42;;;;;;;4.00;3.60;;;6.80;67.10;;;;;;926405;151;27496;-73
2023/03/06 03:25:09;;;;;;;4.63;3.60;;;6.80;67.10;;;;;;911992;153;27403;-73
2023/03/06 03:27:36;;;;;;;4.53;3.97;;;6.80;67.10;;;;;;911988;153;27352;-73
2023/03/06 03:30:03;;;;;;;4.10;3.70;;;6.80;67.10;;;;;;910230;153;27426;-74
2023/03/06 03:32:29;;;;;;;4.90;4.00;;;6.90;67.10;;;;;;909128;153;27399;-74
2023/03/06 03:34:55;;;;;;;4.93;4.03;;;6.90;67.10;;;;;;928087;153;27390;-74
2023/03/06 03:37:22;;;;;;;4.63;3.80;;;6.90;67.10;;;;;;925272;150;27496;-74
2023/03/06 03:39:48;;;;;;;4.57;4.07;;;6.90;67.10;;;;;;926297;151;27329;-73
2023/03/06 03:42:15;;;;;;;4.33;3.87;;;6.90;67.10;;;;;;925349;151;28255;-74
2023/03/06 03:44:42;;;;;;;5.30;4.10;;;6.90;66.40;;;;;;925758;151;27370;-74
2023/03/06 03:47:08;;;;;;;4.63;4.23;;;6.80;67.10;;;;;;923742;151;27450;-74
2023/03/06 03:49:35;;;;;;;5.03;3.87;;;6.80;67.10;;;;;;924099;151;27331;-74
2023/03/06 03:52:01;;;;;;;3.97;3.60;;;6.90;67.20;;;;;;923245;151;27342;-74
2023/03/06 03:54:28;;;;;;;5.17;3.73;;;6.90;67.20;;;;;;923335;151;27367;-77
2023/03/06 03:56:55;;;;;;;4.23;3.80;;;6.90;67.20;;;;;;924193;151;27399;-72
2023/03/06 03:59:21;;;;;;;5.23;4.10;;;6.90;67.20;;;;;;922578;151;27396;-73
2023/03/06 04:01:48;;;;;;;5.10;3.93;;;6.80;67.10;;;;;;922475;151;27379;-73
2023/03/06 04:04:14;;;;;;;4.27;3.83;;;6.80;67.10;;;;;;923966;151;27355;-73
2023/03/06 04:06:41;;;;;;;4.57;4.17;;;6.80;67.10;;;;;;922682;151;27458;-73
2023/03/06 04:09:07;;;;;;;4.20;3.80;;;6.80;67.20;;;;;;924981;151;27439;-73
2023/03/06 04:11:34;;;;;;;4.23;3.83;;;6.80;67.20;;;;;;922477;151;27474;-73
2023/03/06 04:14:02;;;;;;;5.13;4.33;;;6.80;67.30;;;;;;924104;151;27397;-73
2023/03/06 04:16:27;;;;;;;4.57;4.17;;;6.80;67.40;;;;;;922340;151;27347;-73
2023/03/06 04:18:54;;;;;;;4.73;3.93;;;6.80;67.50;;;;;;922875;151;27360;-73
2023/03/06 04:21:20;;;;;;;4.90;4.40;;;6.80;67.50;;;;;;924158;151;27400;-73
2023/03/06 04:23:47;;;;;;;5.53;4.27;;;6.80;67.50;;;;;;925177;151;27813;-73
2023/03/06 04:26:14;;;;;;;5.90;3.90;;;6.80;67.50;;;;;;925222;151;27302;-73
2023/03/06 04:28:40;;;;;;;5.03;4.53;;;6.80;67.60;;;;;;924450;151;27283;-73
2023/03/06 04:31:07;;;;;;;4.87;3.93;;;6.90;67.60;;;;;;922393;151;27474;-73
2023/03/06 04:33:33;;;;;;;5.40;4.53;;;6.90;67.70;;;;;;922502;151;27997;-73
2023/03/06 04:36:00;;;;;;;6.27;4.50;;;6.90;67.80;;;;;;924984;151;27325;-73
2023/03/06 04:38:27;;;;;;;5.43;4.87;;;6.90;67.80;;;;;;922837;151;27462;-73
2023/03/06 04:40:53;;;;;;;4.97;4.47;;;6.90;67.70;;;;;;924265;151;27399;-73
2023/03/06 04:43:20;;;;;;;5.40;4.50;;;6.90;67.70;;;;;;923612;151;27813;-73
2023/03/06 04:45:46;;;;;;;7.03;4.53;;;6.90;67.80;;;;;;923383;151;27336;-73
2023/03/06 04:48:16;;;;;;;5.00;4.50;;;6.90;67.80;;;;;;924814;151;27454;-73
2023/03/06 04:50:42;;;;;;;4.23;3.80;;;6.90;67.90;;;;;;924077;151;27477;-73
2023/03/06 04:53:09;;;;;;;5.60;4.13;;;6.90;67.90;;;;;;924608;151;27412;-73
2023/03/06 04:55:35;;;;;;;4.70;4.07;;;6.90;68.00;;;;;;927243;151;27869;-73
2023/03/06 04:58:02;;;;;;;4.70;3.93;;;6.90;67.20;;;;;;928472;151;27375;-73
2023/03/06 05:00:31;;;;;;;4.37;3.90;;;6.90;68.10;;;;;;926783;151;27321;-73
2023/03/06 05:02:55;;;;;;;6.53;4.53;;;6.90;68.10;;;;;;925645;151;27402;-73
2023/03/06 05:05:22;;;;;;;4.93;4.20;;;6.90;68.10;;;;;;926820;151;27374;-73
2023/03/06 05:07:48;;;;;;;4.40;4.00;;;6.90;68.20;;;;;;925972;151;27347;-73
2023/03/06 05:10:15;;;;;;;4.93;4.43;;;6.90;68.20;;;;;;924115;151;27348;-73
2023/03/06 05:12:41;;;;;;;5.00;4.53;;;6.90;68.40;;;;;;916777;153;27531;-73
2023/03/06 05:15:08;;;;;;;4.97;4.43;;;6.90;68.50;;;;;;926104;151;27508;-74
2023/03/06 05:17:35;;;;;;;4.60;4.20;;;6.90;68.50;;;;;;927038;151;27287;-75
2023/03/06 05:20:02;;;;;;;4.63;3.93;;;6.90;68.70;;;;;;926838;151;27307;-73
2023/03/06 05:22:28;;;;;;;5.20;4.20;;;7.00;68.90;;;;;;926472;150;27394;-73
2023/03/06 05:24:54;;;;;;;7.53;4.40;;;6.90;68.90;;;;;;926030;151;27383;-73
2023/03/06 05:27:21;;;;;;;5.67;4.33;;;7.00;69.00;;;;;;925485;151;27417;-73
2023/03/06 05:29:48;;;;;;;4.57;4.17;;;7.00;69.10;;;;;;927337;151;27330;-73
2023/03/06 05:32:14;;;;;;;5.10;4.60;;;7.00;69.10;;;;;;927131;151;28706;-73
2023/03/06 05:34:41;;;;;;;5.33;4.57;;;7.00;69.20;;;;;;925966;151;27351;-73
2023/03/06 05:37:07;;;;;;;5.17;4.43;;;7.00;69.40;;;;;;924920;151;27403;-74
2023/03/06 05:39:34;;;;;;;5.57;4.63;;;7.00;69.50;;;;;;928017;151;27419;-73
2023/03/06 05:42:01;;;;;;;6.77;5.07;;;7.00;69.60;;;;;;926279;151;27500;-73
2023/03/06 05:44:30;;;;;;;5.27;4.50;;;7.00;69.70;;;;;;925753;151;27340;-73
2023/03/06 05:46:57;;;;;;;5.17;4.67;;;7.00;69.80;;;;;;926304;151;27437;-73
2023/03/06 05:49:23;;;;;;;5.50;5.00;;;7.00;70.00;;;;;;923059;151;27473;-74
2023/03/06 05:51:50;;;;;;;4.97;4.33;;;7.00;70.00;;;;;;922206;151;27307;-73
2023/03/06 05:54:16;;;;;;;5.27;4.37;;;6.90;70.00;;;;;;923952;151;27397;-73
2023/03/06 05:56:43;;;;;;;4.87;4.33;;;6.90;70.00;;;;;;924770;151;27481;-72
2023/03/06 05:59:09;;;;;;;5.73;4.80;;;6.90;70.10;;;;;;922837;151;27482;-72
2023/03/06 06:01:36;;;;;;;6.10;4.37;;;6.90;70.30;;;;;;923806;151;27490;-73
2023/03/06 06:04:03;;;;;;;5.20;4.70;;;6.90;70.40;;;;;;922673;151;27318;-75
2023/03/06 06:06:29;;;;;;;4.77;4.37;;;6.90;70.60;;;;;;923159;151;27451;-74
2023/03/06 06:08:56;;;;;;;4.97;4.37;;;6.80;70.70;;;;;;923166;151;27447;-74
2023/03/06 06:11:22;;;;;;;4.80;4.23;;;6.80;70.80;;;;;;924253;151;27394;-74
2023/03/06 06:13:49;;;;;;;5.83;4.83;;;6.80;70.90;;;;;;923422;151;27456;-74
2023/03/06 06:16:16;;;;;;;5.13;4.53;;;6.80;71.00;;;;;;923435;151;27631;-74
2023/03/06 06:18:42;;;;;;;5.20;4.63;;;6.70;71.10;;;;;;923263;151;27407;-74
2023/03/06 06:21:09;;;;;;;4.30;3.90;;;6.80;71.30;;;;;;921200;151;27415;-74
2023/03/06 06:23:35;;;;;;;5.03;4.50;;;6.70;71.40;;;;;;923757;151;27415;-74
2023/03/06 06:26:02;;;;;;;4.93;4.20;;;6.70;71.50;;;;;;922446;151;27454;-74
2023/03/06 06:28:29;;;;;;;6.30;4.57;;;6.70;71.50;;;;;;923271;151;27890;-74
2023/03/06 06:30:55;;;;;;;5.60;4.20;;;6.70;71.70;;;;;;924145;151;27411;-74
2023/03/06 06:33:22;;;;;;;5.07;4.57;;;6.70;72.50;;;;;;923111;151;27456;-74
2023/03/06 06:35:48;;;;;;;5.90;4.80;;;6.70;71.80;;;;;;924743;151;27465;-74
2023/03/06 06:38:15;;;;;;;11.87;6.53;;;6.70;71.80;;;;;;924149;151;27315;-74
2023/03/06 06:40:41;;;;;;;5.07;4.43;;;6.70;72.00;;;;;;923560;151;27405;-74
2023/03/06 06:43:08;;;;;;;5.90;4.70;;;6.70;72.00;;;;;;922961;151;27478;-74
2023/03/06 06:45:35;;;;;;;6.00;4.77;;;6.60;72.00;;;;;;923380;151;27442;-74
2023/03/06 06:48:01;;;;;;;5.40;4.57;;;6.60;72.00;;;;;;924115;151;27486;-74
2023/03/06 06:50:28;;;;;;;7.87;5.40;;;6.60;72.20;;;;;;922379;151;27410;-74
2023/03/06 06:52:54;;;;;;;5.30;4.73;;;6.60;72.20;;;;;;924011;151;27398;-74
2023/03/06 06:55:21;;;;;;;7.30;5.30;;;6.60;72.30;;;;;;937626;148;27344;-74
2023/03/06 06:57:47;;;;;;;5.13;4.63;;;6.60;72.30;;;;;;926328;151;27323;-74
2023/03/06 07:00:14;;;;;;;6.57;5.27;;;6.60;72.40;;;;;;902093;154;27422;-74
2023/03/06 07:02:41;;;;;;;6.97;5.97;;;6.60;72.50;;;;;;903426;154;27431;-74
2023/03/06 07:05:07;;;;;;;6.77;5.37;;;6.60;72.50;;;;;;903377;153;28000;-74
2023/03/06 07:07:34;;;;;;;6.57;5.87;;;6.60;72.60;;;;;;918323;152;27381;-74
2023/03/06 07:10:01;;;;;;;6.53;4.90;;;6.60;72.60;;;;;;911253;154;27514;-74
2023/03/06 07:12:31;;;;;;;5.80;5.30;;;6.60;72.60;;;;;;903353;155;27434;-74
2023/03/06 07:14:54;;;;;;;7.93;5.67;;;6.60;72.70;;;;;;903827;154;28033;-75
2023/03/06 07:17:20;;;;;;;5.57;5.03;;;6.70;72.80;;;;;;920078;152;27421;-74
2023/03/06 07:19:47;;;;;;;7.33;5.43;;;6.70;72.80;;;;;;917483;152;27462;-74
2023/03/06 07:22:13;;;;;;;5.73;5.13;;;6.70;72.60;;;;;;921057;151;27514;-74
2023/03/06 07:24:40;;;;;;;8.30;5.53;;;6.70;72.50;;;;;;923425;151;27488;-74
2023/03/06 07:27:06;;;;;;;6.17;5.40;;;6.80;72.60;;;;;;938927;148;27301;-82
2023/03/06 07:29:33;;;;;;;6.97;6.27;;;6.80;72.60;;;;;;924326;151;27862;-81
2023/03/06 07:32:00;;;;;;;6.07;5.23;;;6.80;72.60;;;;;;925196;151;27428;-82
2023/03/06 07:34:26;;;;;;;5.97;5.33;;;6.80;72.50;;;;;;938366;148;27962;-82
2023/03/06 07:36:53;;;;;;;6.83;5.93;;;6.90;72.60;;;;;;924341;151;27296;-82
2023/03/06 07:39:19;;;;;;;6.43;5.77;;;6.90;72.60;;;;;;923611;151;27380;-82
2023/03/06 07:41:46;;;;;;;6.80;5.77;;;6.90;72.80;;;;;;939144;148;27332;-82
2023/03/06 07:44:13;;;;;;;6.00;5.43;;;7.00;72.80;;;;;;925011;151;27480;-82
2023/03/06 07:46:39;;;;;;;7.63;5.77;;;7.00;72.80;;;;;;905066;154;28102;-82
2023/03/06 07:49:06;;;;;;;5.97;5.37;;;7.10;72.90;;;;;;907461;153;27500;-82
2023/03/06 07:51:32;;;;;;;6.57;5.83;;;7.20;73.10;;;;;;912012;152;27499;-82
2023/03/06 07:53:59;;;;;;;5.80;5.30;;;7.30;73.20;;;;;;905945;154;27374;-82
2023/03/06 07:56:26;;;;;;;7.13;5.67;;;7.40;73.40;;;;;;918450;153;27953;-82
2023/03/06 07:58:52;;;;;;;5.90;5.30;;;7.50;73.60;;;;;;909196;153;27409;-82
2023/03/06 08:01:19;;;;;;;6.47;5.57;;;7.70;73.60;;;;;;925937;151;27436;-81
2023/03/06 08:03:45;;;;;;;6.60;5.80;;;7.80;73.50;;;;;;925602;151;27388;-81
2023/03/06 08:06:12;;;;;;;6.67;5.73;;;8.00;73.30;;;;;;926377;151;27492;-82
2023/03/06 08:08:38;;;;;;;7.60;6.30;;;8.20;73.10;;;;;;926782;151;27551;-82
2023/03/06 08:11:05;;;;;;;8.77;5.23;;;8.40;73.10;;;;;;925563;151;27367;-81
2023/03/06 08:13:32;;;;;;;6.27;5.67;;;8.60;72.90;;;;;;926224;151;27425;-81
2023/03/06 08:15:59;;;;;;;6.00;5.40;;;8.80;72.60;;;;;;926429;151;27473;-82
2023/03/06 08:18:25;;;;;;;10.87;7.30;;;8.90;72.20;;;;;;926325;151;27513;-82
2023/03/06 08:20:51;;;;;;;5.87;5.37;;;9.10;71.90;;;;;;925496;151;27456;-82
2023/03/06 08:23:18;;;;;;;7.43;6.10;;;9.20;71.40;;;;;;925595;151;27324;-82
2023/03/06 08:25:45;;;;;;;6.70;6.10;;;9.40;71.00;;;;;;926908;151;27410;-82
2023/03/06 08:28:11;;;;;;;7.23;5.93;;;9.40;70.70;;;;;;926065;151;27508;-82
2023/03/06 08:30:38;;;;;;;6.70;6.07;;;9.50;70.40;;;;;;926984;151;27419;-82
2023/03/06 08:33:04;;;;;;;6.03;5.43;;;9.60;70.40;;;;;;924836;151;27352;-82
2023/03/06 08:35:31;;;;;;;6.70;6.00;;;9.60;70.40;;;;;;923490;151;27453;-81
2023/03/06 08:37:57;;;;;;;7.30;6.10;;;9.70;70.30;;;;;;926083;151;27434;-82
2023/03/06 08:40:25;;;;;;;7.17;6.47;;;9.80;70.00;;;;;;925470;151;27402;-82
2023/03/06 08:42:51;;;;;;;6.67;6.07;;;9.90;69.80;;;;;;926620;151;27311;-82
2023/03/06 08:45:17;;;;;;;6.87;6.17;;;10.00;69.60;;;;;;926175;151;27323;-82
2023/03/06 08:47:44;;;;;;;7.27;6.57;;;10.10;70.30;;;;;;927206;151;27448;-82
2023/03/06 08:50:11;;;;;;;7.40;6.33;;;10.20;69.50;;;;;;904376;153;27449;-82
2023/03/06 08:52:37;;;;;;;7.03;6.33;;;10.30;69.50;;;;;;917087;152;27395;-82
2023/03/06 08:55:04;;;;;;;7.37;6.40;;;10.30;69.30;;;;;;903837;154;27397;-82
2023/03/06 08:57:30;;;;;;;7.57;6.87;;;10.50;69.40;;;;;;900974;154;27380;-82
2023/03/06 08:59:57;;;;;;;8.37;6.70;;;10.60;69.40;;;;;;919003;152;27411;-82
2023/03/06 09:02:23;;;;;;;7.03;6.33;;;10.70;69.10;;;;;;916729;151;27399;-82
2023/03/06 09:04:50;;;;;;;7.70;6.90;;;10.80;68.70;;;;;;906601;154;27383;-83
2023/03/06 09:07:17;;;;;;;8.23;6.60;;;10.90;68.20;;;;;;903204;155;27378;-82
2023/03/06 09:09:43;;;;;;;7.17;6.30;;;10.90;67.90;;;;;;904603;154;27410;-82
2023/03/06 09:12:10;;;;;;;7.60;6.83;;;10.90;67.70;;;;;;904889;154;27423;-82
2023/03/06 09:14:36;;;;;;;7.53;6.77;;;10.90;67.60;;;;;;903131;155;27527;-82
2023/03/06 09:17:03;;;;;;;7.60;6.57;;;10.90;67.70;;;;;;904330;154;27334;-82
2023/03/06 09:19:30;;;;;;;8.23;7.43;;;10.90;67.90;;;;;;900759;155;27378;-82
2023/03/06 09:21:58;;;;;;;6.97;6.27;;;11.00;68.30;;;;;;922618;150;27482;-82
2023/03/06 09:24:23;;;;;;;7.33;6.43;;;11.10;68.50;;;;;;901939;153;27510;-82
2023/03/06 09:26:49;;;;;;;7.60;6.57;;;11.20;68.40;;;;;;938910;148;27400;-83
2023/03/06 09:29:16;;;;;;;7.83;6.77;;;11.30;68.00;;;;;;924367;151;27401;-82
2023/03/06 09:31:43;;;;;;;7.43;6.73;;;11.40;67.50;;;;;;922251;151;27343;-82
2023/03/06 09:34:09;;;;;;;8.93;7.37;;;11.50;67.10;;;;;;939059;148;27365;-82
2023/03/06 09:36:36;;;;;;;7.60;6.80;;;11.40;66.60;;;;;;921773;150;27395;-82
2023/03/06 09:39:02;;;;;;;7.37;6.57;;;11.40;66.30;;;;;;919554;152;27403;-82
2023/03/06 09:41:34;;;;;;;7.30;6.20;;;11.30;66.10;;;;;;905563;153;27371;-82
2023/03/06 09:44:04;;;;;;;8.10;7.30;;;11.20;66.10;;;;;;901753;155;27429;-83
2023/03/06 09:46:45;;;;;;;9.30;7.37;;;11.00;66.00;;;;;;902237;153;27362;-83
2023/03/06 09:49:24;;;;;;;7.40;6.63;;;10.90;66.10;;;;;;901769;155;27363;-82
2023/03/06 09:51:50;;;;;;;8.97;8.10;;;10.80;66.30;;;;;;901556;153;27393;-82
2023/03/06 09:54:17;;;;;;;7.87;7.07;;;10.60;66.70;;;;;;906630;154;27396;-81
2023/03/06 09:56:44;;;;;;;7.17;6.47;;;10.50;67.10;;;;;;901299;154;27399;-81
2023/03/06 09:59:16;;;;;;;7.40;6.60;;;10.40;67.60;;;;;;918946;153;27359;-81
2023/03/06 10:01:43;;;;;;;6.77;6.17;;;10.30;68.20;;;;;;917439;152;27366;-82
2023/03/06 10:04:24;;;;;;;7.43;6.57;;;10.30;68.80;;;;;;904646;154;27434;-82
2023/03/06 10:06:50;;;;;;;7.43;6.70;;;10.40;69.50;;;;;;919378;151;28060;-82
2023/03/06 10:09:29;;;;;;;7.87;7.07;;;10.50;70.00;;;;;;917198;152;27456;-81
2023/03/06 10:11:59;;;;;;;7.80;6.97;;;10.60;70.30;;;;;;902098;153;27402;-82
2023/03/06 10:14:34;;;;;;;8.50;7.70;;;10.80;70.30;;;;;;904187;154;27455;-82
2023/03/06 10:17:01;;;;;;;7.67;6.87;;;10.90;70.10;;;;;;920062;152;27413;-82
2023/03/06 10:19:30;;;;;;;7.90;7.10;;;11.10;69.90;;;;;;902707;153;27378;-82
2023/03/06 10:21:57;;;;;;;8.60;7.73;;;11.20;69.60;;;;;;900731;155;27403;-83
2023/03/06 10:24:44;;;;;;;8.37;7.57;;;11.30;69.30;;;;;;901395;155;27539;-82
2023/03/06 10:27:15;;;;;;;7.60;6.90;;;11.40;68.80;;;;;;920418;152;27925;-83
2023/03/06 10:29:43;;;;;;;9.90;7.60;;;11.40;67.70;;;;;;919213;151;27281;-83
2023/03/06 10:32:31;;;;;;;9.87;7.90;;;11.40;67.50;;;;;;904434;154;27486;-83
2023/03/06 10:34:58;;;;;;;7.67;6.97;;;11.40;67.50;;;;;;902659;155;27371;-82
2023/03/06 10:37:24;;;;;;;7.67;6.80;;;11.40;67.20;;;;;;905080;155;27631;-82
2023/03/06 10:39:57;;;;;;;8.27;7.43;;;11.30;67.30;;;;;;917852;152;27348;-82
2023/03/06 10:42:23;;;;;;;7.03;6.40;;;11.30;67.00;;;;;;919152;151;27873;-82
2023/03/06 10:44:50;;;;;;;7.63;6.83;;;11.20;66.70;;;;;;938098;148;27417;-82
2023/03/06 10:47:26;;;;;;;7.70;6.43;;;11.10;66.70;;;;;;912193;153;27416;-82
2023/03/06 10:50:01;;;;;;;8.60;7.73;;;10.90;67.10;;;;;;903711;155;28108;-82
2023/03/06 10:52:30;;;;;;;8.27;7.40;;;10.80;67.90;;;;;;903435;155;27318;-83
2023/03/06 10:55:21;;;;;;;7.63;6.93;;;10.80;68.40;;;;;;902092;155;27532;-82
2023/03/06 10:57:48;;;;;;;8.10;6.27;;;10.70;68.90;;;;;;937834;148;27482;-83
2023/03/06 11:00:29;;;;;;;8.37;7.47;;;10.70;69.00;;;;;;939238;148;27494;-82
2023/03/06 11:03:02;;;;;;;8.43;6.50;;;10.70;69.10;;;;;;924157;151;27380;-83
2023/03/06 11:05:29;;;;;;;7.67;6.67;;;10.80;69.40;;;;;;924980;151;27487;-83
2023/03/06 11:07:55;;;;;;;6.33;5.63;;;10.90;69.60;;;;;;918518;152;27369;-82
2023/03/06 11:10:23;;;;;;;6.90;6.27;;;11.00;69.90;;;;;;911395;154;27444;-82
2023/03/06 11:12:57;;;;;;;6.90;6.20;;;11.10;69.90;;;;;;917245;151;27451;-82
2023/03/06 11:15:24;;;;;;;7.53;6.77;;;11.20;69.60;;;;;;911435;154;27401;-82
2023/03/06 11:17:56;;;;;;;8.93;8.00;;;11.40;69.70;;;;;;902607;155;27402;-82
2023/03/06 11:20:50;;;;;;;9.20;7.90;;;11.50;69.90;;;;;;901094;155;27421;-82
2023/03/06 11:23:20;;;;;;;8.20;7.30;;;11.70;69.70;;;;;;904707;154;27478;-83
2023/03/06 11:25:55;;;;;;;8.20;7.40;;;12.00;69.60;;;;;;903366;155;27822;-83
2023/03/06 11:28:28;;;;;;;8.30;7.50;;;12.20;69.30;;;;;;881098;159;27408;-73
2023/03/06 11:30:54;;;;;;;8.50;7.70;;;12.40;69.60;;;;;;923383;151;27344;-74
2023/03/06 11:33:30;;;;;;;8.57;7.67;;;12.50;68.50;;;;;;903642;154;27421;-74
2023/03/06 11:36:02;;;;;;;7.63;6.93;;;12.70;67.90;;;;;;916806;152;27518;-73
2023/03/06 11:38:34;;;;;;;7.73;6.93;;;12.80;67.30;;;;;;900325;154;27360;-74
2023/03/06 11:41:01;;;;;;;7.53;6.83;;;12.90;66.90;;;;;;923868;151;27402;-74
2023/03/06 11:43:33;;;;;;;7.53;6.83;;;13.00;66.70;;;;;;938117;148;27382;-74
2023/03/06 11:46:03;;;;;;;7.47;6.77;;;13.10;66.50;;;;;;923949;151;27463;-74
2023/03/06 11:48:41;;;;;;;7.17;6.47;;;13.20;66.40;;;;;;923532;151;27392;-73
2023/03/06 11:51:14;;;;;;;7.15;6.45;;;13.30;66.00;;;;;;902786;154;27455;-73
2023/03/06 11:53:40;;;;;;;6.87;6.00;;;13.40;65.40;;;;;;903439;154;27476;-73
2023/03/06 11:56:18;;;;;;;7.30;6.60;;;13.50;65.00;;;;;;911713;154;27369;-74
2023/03/06 11:58:57;;;;;;;7.23;6.53;;;13.60;64.70;;;;;;901199;155;27386;-74
2023/03/06 12:01:32;;;;;;;7.27;6.57;;;13.60;64.20;;;;;;903037;155;27520;-73
2023/03/06 12:04:29;;;;;;;8.27;6.83;;;13.70;63.80;;;;;;902769;155;27382;-73
2023/03/06 12:07:14;;;;;;;8.20;7.40;;;13.70;62.70;;;;;;904947;154;27409;-74
2023/03/06 12:10:03;;;;;;;7.60;6.80;;;13.70;63.20;;;;;;922896;151;27415;-74
2023/03/06 12:12:56;;;;;;;7.13;6.43;;;13.60;63.00;;;;;;915477;152;27417;-74
2023/03/06 12:15:22;;;;;;;6.80;6.10;;;13.60;62.60;;;;;;922557;151;27496;-74
2023/03/06 12:18:10;;;;;;;7.13;6.43;;;13.50;62.20;;;;;;917063;152;27357;-73
2023/03/06 12:20:43;;;;;;;7.13;6.43;;;13.40;61.80;;;;;;920392;151;27363;-74
2023/03/06 12:23:47;;;;;;;7.60;6.80;;;13.30;61.60;;;;;;921780;151;27472;-74
2023/03/06 12:26:44;;;;;;;7.07;6.47;;;13.10;61.50;;;;;;922241;151;27376;-74
2023/03/06 12:29:29;;;;;;;8.53;7.03;;;13.00;61.80;;;;;;923443;151;27701;-74
2023/03/06 12:32:18;;;;;;;7.03;6.43;;;12.90;61.80;;;;;;922996;151;27376;-74
2023/03/06 12:35:06;;;;;;;8.10;6.20;;;12.70;61.70;;;;;;922304;151;27392;-74
2023/03/06 12:37:53;;;;;;;6.87;6.17;;;12.60;61.80;;;;;;925058;151;27410;-74
2023/03/06 12:40:31;;;;;;;7.07;6.27;;;12.50;61.70;;;;;;905265;151;27391;-74
2023/03/06 12:43:01;;;;;;;6.70;6.03;;;12.40;61.90;;;;;;924783;151;27386;-74
2023/03/06 12:45:33;;;;;;;8.50;7.60;;;12.40;61.80;;;;;;910935;151;27444;-73
2023/03/06 12:48:00;;;;;;;7.03;6.33;;;12.30;61.70;;;;;;924793;151;27474;-73
2023/03/06 12:50:29;;;;;;;7.37;6.67;;;12.20;61.50;;;;;;923003;151;27374;-73
2023/03/06 12:52:55;;;;;;;6.93;6.07;;;12.20;61.30;;;;;;924515;151;27517;-73
2023/03/06 12:55:22;;;;;;;7.23;6.53;;;12.20;61.30;;;;;;926551;151;27464;-73
2023/03/06 12:57:48;;;;;;;6.63;6.03;;;12.10;61.20;;;;;;926722;151;27358;-73
2023/03/06 13:00:33;;;;;;;6.90;6.00;;;12.10;61.00;;;;;;927739;151;27497;-73